sensor_id;sensor_type;location;lat;lon;timestamp;P1;durP1;ratioP1;P2;durP2;ratioP2
11827;SDS011;5971;49.646;8.568;2024-03-25T00:00:12;4.80;;;2.30;;
11827;SDS011;5971;49.646;8.568;2024-03-25T00:03:12;3.75;;;2.17;;
11827;SDS011;5971;49.646;8.568;2024-03-25T00:06:13;5.22;;;2.40;;
11827;SDS011;5971;49.646;8.568;2024-03-25T00:09:13;6.22;;;2.10;;
11827;SDS011;5971;49.646;8.568;2024-03-25T00:12:14;5.38;;;2.80;;
11827;SDS011;5971;49.646;8.568;2024-03-25T00:15:14;5.07;;;3.33;;
11827;SDS011;5971;49.646;8.568;2024-03-25T00:18:15;4.70;;;2.15;;
11827;SDS011;5971;49.646;8.568;2024-03-25T00:21:16;4.53;;;1.92;;
11827;SDS011;5971;49.646;8.568;2024-03-25T00:24:16;5.63;;;2.25;;
11827;SDS011;5971;49.646;8.568;2024-03-25T00:27:17;5.32;;;2.17;;
11827;SDS011;5971;49.646;8.568;2024-03-25T00:30:17;5.97;;;2.72;;
11827;SDS011;5971;49.646;8.568;2024-03-25T00:33:18;5.32;;;1.73;;
11827;SDS011;5971;49.646;8.568;2024-03-25T00:36:18;3.70;;;2.00;;
11827;SDS011;5971;49.646;8.568;2024-03-25T00:39:19;6.00;;;2.17;;
11827;SDS011;5971;49.646;8.568;2024-03-25T00:42:19;4.90;;;2.67;;
11827;SDS011;5971;49.646;8.568;2024-03-25T00:45:19;5.15;;;2.17;;
11827;SDS011;5971;49.646;8.568;2024-03-25T00:48:20;4.82;;;2.15;;
11827;SDS011;5971;49.646;8.568;2024-03-25T00:51:20;7.38;;;2.28;;
11827;SDS011;5971;49.646;8.568;2024-03-25T00:54:21;3.75;;;1.85;;
11827;SDS011;5971;49.646;8.568;2024-03-25T00:57:21;4.43;;;2.03;;
11827;SDS011;5971;49.646;8.568;2024-03-25T01:00:22;6.65;;;2.72;;
11827;SDS011;5971;49.646;8.568;2024-03-25T01:03:22;6.05;;;2.25;;
11827;SDS011;5971;49.646;8.568;2024-03-25T01:06:23;7.25;;;2.00;;
11827;SDS011;5971;49.646;8.568;2024-03-25T01:09:26;5.82;;;2.25;;
11827;SDS011;5971;49.646;8.568;2024-03-25T01:12:26;8.57;;;2.70;;
11827;SDS011;5971;49.646;8.568;2024-03-25T01:15:27;4.38;;;2.92;;
11827;SDS011;5971;49.646;8.568;2024-03-25T01:18:27;5.55;;;2.30;;
11827;SDS011;5971;49.646;8.568;2024-03-25T01:21:28;6.13;;;2.30;;
11827;SDS011;5971;49.646;8.568;2024-03-25T01:24:28;4.85;;;2.03;;
11827;SDS011;5971;49.646;8.568;2024-03-25T01:27:29;7.03;;;3.78;;
11827;SDS011;5971;49.646;8.568;2024-03-25T01:30:29;5.38;;;2.67;;
11827;SDS011;5971;49.646;8.568;2024-03-25T01:33:30;4.80;;;2.20;;
11827;SDS011;5971;49.646;8.568;2024-03-25T01:36:31;5.82;;;3.00;;
11827;SDS011;5971;49.646;8.568;2024-03-25T01:39:31;5.93;;;2.20;;
11827;SDS011;5971;49.646;8.568;2024-03-25T01:42:32;5.25;;;2.17;;
11827;SDS011;5971;49.646;8.568;2024-03-25T01:45:33;6.07;;;2.33;;
11827;SDS011;5971;49.646;8.568;2024-03-25T01:48:34;6.45;;;2.33;;
11827;SDS011;5971;49.646;8.568;2024-03-25T01:51:34;7.25;;;2.63;;
11827;SDS011;5971;49.646;8.568;2024-03-25T01:54:36;4.78;;;2.35;;
11827;SDS011;5971;49.646;8.568;2024-03-25T01:57:37;4.80;;;2.28;;
11827;SDS011;5971;49.646;8.568;2024-03-25T02:00:39;4.75;;;2.22;;
11827;SDS011;5971;49.646;8.568;2024-03-25T02:03:39;5.82;;;2.10;;
11827;SDS011;5971;49.646;8.568;2024-03-25T02:06:40;7.57;;;2.40;;
11827;SDS011;5971;49.646;8.568;2024-03-25T02:09:41;4.10;;;2.20;;
11827;SDS011;5971;49.646;8.568;2024-03-25T02:12:42;4.05;;;2.10;;
11827;SDS011;5971;49.646;8.568;2024-03-25T02:15:42;5.03;;;2.38;;
11827;SDS011;5971;49.646;8.568;2024-03-25T02:18:43;3.97;;;2.40;;
11827;SDS011;5971;49.646;8.568;2024-03-25T02:21:43;4.07;;;2.13;;
11827;SDS011;5971;49.646;8.568;2024-03-25T02:24:47;5.35;;;2.10;;
11827;SDS011;5971;49.646;8.568;2024-03-25T02:27:49;6.18;;;2.85;;
11827;SDS011;5971;49.646;8.568;2024-03-25T02:30:50;3.60;;;2.03;;
11827;SDS011;5971;49.646;8.568;2024-03-25T02:33:50;6.82;;;3.03;;
11827;SDS011;5971;49.646;8.568;2024-03-25T02:36:51;4.10;;;2.08;;
11827;SDS011;5971;49.646;8.568;2024-03-25T02:39:52;5.88;;;2.40;;
11827;SDS011;5971;49.646;8.568;2024-03-25T02:42:53;6.32;;;2.45;;
11827;SDS011;5971;49.646;8.568;2024-03-25T02:45:53;5.97;;;2.63;;
11827;SDS011;5971;49.646;8.568;2024-03-25T02:48:54;4.95;;;2.72;;
11827;SDS011;5971;49.646;8.568;2024-03-25T02:51:54;5.10;;;2.38;;
11827;SDS011;5971;49.646;8.568;2024-03-25T02:54:54;8.00;;;3.05;;
11827;SDS011;5971;49.646;8.568;2024-03-25T02:57:55;7.57;;;2.70;;
11827;SDS011;5971;49.646;8.568;2024-03-25T03:00:55;3.72;;;1.95;;
11827;SDS011;5971;49.646;8.568;2024-03-25T03:03:56;5.72;;;2.65;;
11827;SDS011;5971;49.646;8.568;2024-03-25T03:06:56;4.35;;;2.25;;
11827;SDS011;5971;49.646;8.568;2024-03-25T03:09:57;6.53;;;3.65;;
11827;SDS011;5971;49.646;8.568;2024-03-25T03:12:57;6.95;;;2.53;;
11827;SDS011;5971;49.646;8.568;2024-03-25T03:15:57;5.70;;;2.63;;
11827;SDS011;5971;49.646;8.568;2024-03-25T03:18:58;6.00;;;2.80;;
11827;SDS011;5971;49.646;8.568;2024-03-25T03:21:58;5.88;;;2.78;;
11827;SDS011;5971;49.646;8.568;2024-03-25T03:24:59;7.15;;;2.40;;
11827;SDS011;5971;49.646;8.568;2024-03-25T03:27:59;6.32;;;2.63;;
11827;SDS011;5971;49.646;8.568;2024-03-25T03:31:02;6.90;;;2.42;;
11827;SDS011;5971;49.646;8.568;2024-03-25T03:34:03;9.75;;;3.38;;
11827;SDS011;5971;49.646;8.568;2024-03-25T03:37:03;8.70;;;2.92;;
11827;SDS011;5971;49.646;8.568;2024-03-25T03:40:04;6.38;;;3.17;;
11827;SDS011;5971;49.646;8.568;2024-03-25T03:43:07;6.80;;;2.92;;
11827;SDS011;5971;49.646;8.568;2024-03-25T03:46:08;8.55;;;3.35;;
11827;SDS011;5971;49.646;8.568;2024-03-25T03:49:08;7.45;;;2.85;;
11827;SDS011;5971;49.646;8.568;2024-03-25T03:52:09;5.35;;;2.60;;
11827;SDS011;5971;49.646;8.568;2024-03-25T03:55:09;5.20;;;2.63;;
11827;SDS011;5971;49.646;8.568;2024-03-25T03:58:10;4.45;;;2.78;;
11827;SDS011;5971;49.646;8.568;2024-03-25T04:01:14;7.00;;;3.00;;
11827;SDS011;5971;49.646;8.568;2024-03-25T04:04:15;8.57;;;3.50;;
11827;SDS011;5971;49.646;8.568;2024-03-25T04:07:15;7.40;;;3.65;;
11827;SDS011;5971;49.646;8.568;2024-03-25T04:10:16;8.95;;;3.20;;
11827;SDS011;5971;49.646;8.568;2024-03-25T04:13:19;8.18;;;3.53;;
11827;SDS011;5971;49.646;8.568;2024-03-25T04:16:20;7.78;;;3.03;;
11827;SDS011;5971;49.646;8.568;2024-03-25T04:19:24;6.95;;;2.60;;
11827;SDS011;5971;49.646;8.568;2024-03-25T04:22:25;8.65;;;3.35;;
11827;SDS011;5971;49.646;8.568;2024-03-25T04:25:26;8.70;;;3.60;;
11827;SDS011;5971;49.646;8.568;2024-03-25T04:28:26;8.70;;;3.75;;
11827;SDS011;5971;49.646;8.568;2024-03-25T04:31:27;7.20;;;3.05;;
11827;SDS011;5971;49.646;8.568;2024-03-25T04:34:27;8.18;;;3.05;;
11827;SDS011;5971;49.646;8.568;2024-03-25T04:37:28;7.75;;;3.95;;
11827;SDS011;5971;49.646;8.568;2024-03-25T04:40:28;8.15;;;3.30;;
11827;SDS011;5971;49.646;8.568;2024-03-25T04:43:29;7.03;;;3.72;;
11827;SDS011;5971;49.646;8.568;2024-03-25T04:46:29;10.68;;;4.07;;
11827;SDS011;5971;49.646;8.568;2024-03-25T04:49:30;9.05;;;3.60;;
11827;SDS011;5971;49.646;8.568;2024-03-25T04:52:30;8.93;;;3.60;;
11827;SDS011;5971;49.646;8.568;2024-03-25T04:55:31;13.20;;;4.53;;
11827;SDS011;5971;49.646;8.568;2024-03-25T04:58:31;9.68;;;3.58;;
11827;SDS011;5971;49.646;8.568;2024-03-25T05:01:31;7.25;;;3.63;;
11827;SDS011;5971;49.646;8.568;2024-03-25T05:04:32;8.85;;;4.03;;
11827;SDS011;5971;49.646;8.568;2024-03-25T05:07:33;8.82;;;3.75;;
11827;SDS011;5971;49.646;8.568;2024-03-25T05:10:33;9.85;;;4.85;;
11827;SDS011;5971;49.646;8.568;2024-03-25T05:13:33;12.85;;;5.38;;
11827;SDS011;5971;49.646;8.568;2024-03-25T05:16:34;9.32;;;4.35;;
11827;SDS011;5971;49.646;8.568;2024-03-25T05:19:34;8.35;;;3.42;;
11827;SDS011;5971;49.646;8.568;2024-03-25T05:22:35;10.35;;;4.78;;
11827;SDS011;5971;49.646;8.568;2024-03-25T05:25:35;9.90;;;4.85;;
11827;SDS011;5971;49.646;8.568;2024-03-25T05:28:36;8.50;;;4.38;;
11827;SDS011;5971;49.646;8.568;2024-03-25T05:31:36;12.00;;;4.60;;
11827;SDS011;5971;49.646;8.568;2024-03-25T05:34:37;9.50;;;4.18;;
11827;SDS011;5971;49.646;8.568;2024-03-25T05:37:37;10.43;;;4.53;;
11827;SDS011;5971;49.646;8.568;2024-03-25T05:40:37;9.65;;;4.53;;
11827;SDS011;5971;49.646;8.568;2024-03-25T05:43:38;10.52;;;4.47;;
11827;SDS011;5971;49.646;8.568;2024-03-25T05:46:39;10.05;;;4.28;;
11827;SDS011;5971;49.646;8.568;2024-03-25T05:49:39;9.20;;;3.65;;
11827;SDS011;5971;49.646;8.568;2024-03-25T05:52:40;8.70;;;3.97;;
11827;SDS011;5971;49.646;8.568;2024-03-25T05:55:40;8.98;;;4.28;;
11827;SDS011;5971;49.646;8.568;2024-03-25T05:58:40;10.80;;;4.38;;
11827;SDS011;5971;49.646;8.568;2024-03-25T06:01:41;11.60;;;4.88;;
11827;SDS011;5971;49.646;8.568;2024-03-25T06:04:41;10.05;;;4.25;;
11827;SDS011;5971;49.646;8.568;2024-03-25T06:07:42;12.38;;;4.43;;
11827;SDS011;5971;49.646;8.568;2024-03-25T06:10:42;13.07;;;4.53;;
11827;SDS011;5971;49.646;8.568;2024-03-25T06:13:45;10.27;;;5.05;;
11827;SDS011;5971;49.646;8.568;2024-03-25T06:16:46;8.68;;;3.85;;
11827;SDS011;5971;49.646;8.568;2024-03-25T06:19:46;11.90;;;5.07;;
11827;SDS011;5971;49.646;8.568;2024-03-25T06:22:47;11.90;;;5.15;;
11827;SDS011;5971;49.646;8.568;2024-03-25T06:25:47;11.23;;;5.35;;
11827;SDS011;5971;49.646;8.568;2024-03-25T06:28:48;14.70;;;7.20;;
11827;SDS011;5971;49.646;8.568;2024-03-25T06:31:48;14.98;;;5.50;;
11827;SDS011;5971;49.646;8.568;2024-03-25T06:35:07;8.98;;;4.45;;
11827;SDS011;5971;49.646;8.568;2024-03-25T06:38:08;9.90;;;4.82;;
11827;SDS011;5971;49.646;8.568;2024-03-25T06:41:08;12.75;;;5.13;;
11827;SDS011;5971;49.646;8.568;2024-03-25T06:44:09;11.15;;;5.63;;
11827;SDS011;5971;49.646;8.568;2024-03-25T06:47:09;11.55;;;6.53;;
11827;SDS011;5971;49.646;8.568;2024-03-25T06:50:09;11.75;;;5.60;;
11827;SDS011;5971;49.646;8.568;2024-03-25T06:53:10;10.63;;;4.97;;
11827;SDS011;5971;49.646;8.568;2024-03-25T06:56:10;14.60;;;5.55;;
11827;SDS011;5971;49.646;8.568;2024-03-25T06:59:11;11.60;;;5.40;;
11827;SDS011;5971;49.646;8.568;2024-03-25T07:02:11;11.95;;;5.35;;
11827;SDS011;5971;49.646;8.568;2024-03-25T07:05:11;10.90;;;5.95;;
11827;SDS011;5971;49.646;8.568;2024-03-25T07:08:12;11.57;;;4.80;;
11827;SDS011;5971;49.646;8.568;2024-03-25T07:11:12;11.70;;;5.68;;
11827;SDS011;5971;49.646;8.568;2024-03-25T07:14:13;11.55;;;5.05;;
11827;SDS011;5971;49.646;8.568;2024-03-25T07:17:13;11.30;;;4.80;;
11827;SDS011;5971;49.646;8.568;2024-03-25T07:20:14;9.35;;;4.60;;
11827;SDS011;5971;49.646;8.568;2024-03-25T07:23:14;11.13;;;4.90;;
11827;SDS011;5971;49.646;8.568;2024-03-25T07:26:14;9.55;;;4.82;;
11827;SDS011;5971;49.646;8.568;2024-03-25T07:29:15;10.02;;;4.82;;
11827;SDS011;5971;49.646;8.568;2024-03-25T07:32:15;12.32;;;4.43;;
11827;SDS011;5971;49.646;8.568;2024-03-25T07:35:16;12.05;;;5.35;;
11827;SDS011;5971;49.646;8.568;2024-03-25T07:38:17;10.35;;;4.15;;
11827;SDS011;5971;49.646;8.568;2024-03-25T07:41:17;9.23;;;4.40;;
11827;SDS011;5971;49.646;8.568;2024-03-25T07:44:17;10.35;;;3.83;;
11827;SDS011;5971;49.646;8.568;2024-03-25T07:47:18;12.57;;;5.88;;
11827;SDS011;5971;49.646;8.568;2024-03-25T07:50:18;9.95;;;3.95;;
11827;SDS011;5971;49.646;8.568;2024-03-25T07:53:20;9.23;;;3.53;;
11827;SDS011;5971;49.646;8.568;2024-03-25T07:56:20;11.18;;;4.78;;
11827;SDS011;5971;49.646;8.568;2024-03-25T07:59:21;8.18;;;3.90;;
11827;SDS011;5971;49.646;8.568;2024-03-25T08:02:21;6.88;;;3.40;;
11827;SDS011;5971;49.646;8.568;2024-03-25T08:05:22;9.00;;;3.78;;
11827;SDS011;5971;49.646;8.568;2024-03-25T08:08:22;8.63;;;4.50;;
11827;SDS011;5971;49.646;8.568;2024-03-25T08:11:23;14.55;;;4.90;;
11827;SDS011;5971;49.646;8.568;2024-03-25T08:14:23;7.95;;;4.63;;
11827;SDS011;5971;49.646;8.568;2024-03-25T08:17:24;11.82;;;4.13;;
11827;SDS011;5971;49.646;8.568;2024-03-25T08:20:24;7.78;;;5.05;;
11827;SDS011;5971;49.646;8.568;2024-03-25T08:23:25;8.60;;;4.28;;
11827;SDS011;5971;49.646;8.568;2024-03-25T08:26:25;11.05;;;5.40;;
11827;SDS011;5971;49.646;8.568;2024-03-25T08:29:26;8.60;;;4.10;;
11827;SDS011;5971;49.646;8.568;2024-03-25T08:32:26;7.70;;;4.10;;
11827;SDS011;5971;49.646;8.568;2024-03-25T08:35:26;7.22;;;4.13;;
11827;SDS011;5971;49.646;8.568;2024-03-25T08:38:27;8.77;;;4.40;;
11827;SDS011;5971;49.646;8.568;2024-03-25T08:41:28;7.93;;;4.38;;
11827;SDS011;5971;49.646;8.568;2024-03-25T08:44:29;7.22;;;4.15;;
11827;SDS011;5971;49.646;8.568;2024-03-25T08:47:29;8.52;;;3.95;;
11827;SDS011;5971;49.646;8.568;2024-03-25T08:50:29;7.60;;;3.88;;
11827;SDS011;5971;49.646;8.568;2024-03-25T08:53:30;6.05;;;3.05;;
11827;SDS011;5971;49.646;8.568;2024-03-25T08:56:30;8.32;;;3.42;;
11827;SDS011;5971;49.646;8.568;2024-03-25T08:59:30;8.25;;;4.57;;
11827;SDS011;5971;49.646;8.568;2024-03-25T09:02:31;6.00;;;3.53;;
11827;SDS011;5971;49.646;8.568;2024-03-25T09:05:31;8.60;;;4.25;;
11827;SDS011;5971;49.646;8.568;2024-03-25T09:08:32;7.55;;;2.67;;
11827;SDS011;5971;49.646;8.568;2024-03-25T09:11:52;6.13;;;2.63;;
11827;SDS011;5971;49.646;8.568;2024-03-25T09:14:53;5.68;;;2.63;;
11827;SDS011;5971;49.646;8.568;2024-03-25T09:20:57;5.95;;;2.47;;
11827;SDS011;5971;49.646;8.568;2024-03-25T09:23:57;4.65;;;2.50;;
11827;SDS011;5971;49.646;8.568;2024-03-25T09:26:58;4.00;;;2.17;;
11827;SDS011;5971;49.646;8.568;2024-03-25T09:29:58;5.28;;;1.88;;
11827;SDS011;5971;49.646;8.568;2024-03-25T09:32:59;4.20;;;2.17;;
11827;SDS011;5971;49.646;8.568;2024-03-25T09:35:59;4.45;;;2.20;;
11827;SDS011;5971;49.646;8.568;2024-03-25T09:39:00;6.65;;;2.40;;
11827;SDS011;5971;49.646;8.568;2024-03-25T09:42:01;3.10;;;1.70;;
11827;SDS011;5971;49.646;8.568;2024-03-25T09:45:01;4.18;;;2.22;;
11827;SDS011;5971;49.646;8.568;2024-03-25T09:48:03;3.75;;;1.85;;
11827;SDS011;5971;49.646;8.568;2024-03-25T09:51:04;4.25;;;1.75;;
11827;SDS011;5971;49.646;8.568;2024-03-25T09:54:05;4.65;;;1.75;;
11827;SDS011;5971;49.646;8.568;2024-03-25T09:57:06;3.97;;;2.00;;
11827;SDS011;5971;49.646;8.568;2024-03-25T10:00:08;3.35;;;1.90;;
11827;SDS011;5971;49.646;8.568;2024-03-25T10:03:09;4.72;;;1.98;;
11827;SDS011;5971;49.646;8.568;2024-03-25T10:06:10;4.60;;;1.77;;
11827;SDS011;5971;49.646;8.568;2024-03-25T10:09:10;4.05;;;1.98;;
11827;SDS011;5971;49.646;8.568;2024-03-25T10:12:12;5.03;;;1.98;;
11827;SDS011;5971;49.646;8.568;2024-03-25T10:15:16;4.60;;;2.05;;
11827;SDS011;5971;49.646;8.568;2024-03-25T10:21:19;3.78;;;1.98;;
11827;SDS011;5971;49.646;8.568;2024-03-25T10:24:19;4.75;;;2.25;;
11827;SDS011;5971;49.646;8.568;2024-03-25T10:27:20;4.72;;;2.70;;
11827;SDS011;5971;49.646;8.568;2024-03-25T10:30:20;4.78;;;1.80;;
11827;SDS011;5971;49.646;8.568;2024-03-25T10:33:21;4.55;;;2.30;;
11827;SDS011;5971;49.646;8.568;2024-03-25T10:36:22;5.63;;;2.58;;
11827;SDS011;5971;49.646;8.568;2024-03-25T10:39:25;5.88;;;3.00;;
11827;SDS011;5971;49.646;8.568;2024-03-25T10:42:26;5.10;;;2.40;;
11827;SDS011;5971;49.646;8.568;2024-03-25T10:45:28;6.32;;;3.00;;
11827;SDS011;5971;49.646;8.568;2024-03-25T10:48:30;5.63;;;2.70;;
11827;SDS011;5971;49.646;8.568;2024-03-25T10:51:31;4.05;;;2.13;;
11827;SDS011;5971;49.646;8.568;2024-03-25T10:54:33;3.45;;;1.80;;
11827;SDS011;5971;49.646;8.568;2024-03-25T10:57:33;4.50;;;1.85;;
11827;SDS011;5971;49.646;8.568;2024-03-25T11:00:37;3.67;;;1.70;;
11827;SDS011;5971;49.646;8.568;2024-03-25T11:03:37;3.28;;;1.52;;
11827;SDS011;5971;49.646;8.568;2024-03-25T11:06:38;5.20;;;2.00;;
11827;SDS011;5971;49.646;8.568;2024-03-25T11:09:39;4.38;;;2.13;;
11827;SDS011;5971;49.646;8.568;2024-03-25T11:12:42;4.75;;;1.95;;
11827;SDS011;5971;49.646;8.568;2024-03-25T11:15:43;3.63;;;1.95;;
11827;SDS011;5971;49.646;8.568;2024-03-25T11:18:50;4.70;;;2.03;;
11827;SDS011;5971;49.646;8.568;2024-03-25T11:21:50;5.10;;;3.22;;
11827;SDS011;5971;49.646;8.568;2024-03-25T11:24:51;5.03;;;2.00;;
11827;SDS011;5971;49.646;8.568;2024-03-25T11:27:52;3.47;;;2.00;;
11827;SDS011;5971;49.646;8.568;2024-03-25T11:30:53;4.13;;;2.22;;
11827;SDS011;5971;49.646;8.568;2024-03-25T11:33:54;4.32;;;1.95;;
11827;SDS011;5971;49.646;8.568;2024-03-25T11:36:54;4.07;;;2.10;;
11827;SDS011;5971;49.646;8.568;2024-03-25T11:40:03;4.47;;;1.75;;
11827;SDS011;5971;49.646;8.568;2024-03-25T11:43:04;3.67;;;2.25;;
11827;SDS011;5971;49.646;8.568;2024-03-25T11:46:05;4.45;;;2.42;;
11827;SDS011;5971;49.646;8.568;2024-03-25T11:49:15;4.38;;;2.13;;
11827;SDS011;5971;49.646;8.568;2024-03-25T11:52:17;4.22;;;1.88;;
11827;SDS011;5971;49.646;8.568;2024-03-25T11:55:18;4.22;;;1.88;;
11827;SDS011;5971;49.646;8.568;2024-03-25T11:58:18;5.10;;;2.35;;
11827;SDS011;5971;49.646;8.568;2024-03-25T12:01:19;3.33;;;2.17;;
11827;SDS011;5971;49.646;8.568;2024-03-25T12:04:19;4.30;;;2.00;;
11827;SDS011;5971;49.646;8.568;2024-03-25T12:07:22;5.00;;;1.80;;
11827;SDS011;5971;49.646;8.568;2024-03-25T12:10:22;4.28;;;1.80;;
11827;SDS011;5971;49.646;8.568;2024-03-25T12:13:41;4.28;;;2.05;;
11827;SDS011;5971;49.646;8.568;2024-03-25T12:16:43;4.28;;;1.90;;
11827;SDS011;5971;49.646;8.568;2024-03-25T12:19:43;4.07;;;1.80;;
11827;SDS011;5971;49.646;8.568;2024-03-25T12:22:44;3.70;;;1.85;;
11827;SDS011;5971;49.646;8.568;2024-03-25T12:25:48;4.13;;;1.90;;
11827;SDS011;5971;49.646;8.568;2024-03-25T12:28:48;4.03;;;1.75;;
11827;SDS011;5971;49.646;8.568;2024-03-25T12:31:55;3.75;;;2.13;;
11827;SDS011;5971;49.646;8.568;2024-03-25T12:34:57;3.97;;;2.30;;
11827;SDS011;5971;49.646;8.568;2024-03-25T12:37:57;3.65;;;2.00;;
11827;SDS011;5971;49.646;8.568;2024-03-25T12:41:04;3.92;;;2.10;;
11827;SDS011;5971;49.646;8.568;2024-03-25T12:44:05;4.03;;;2.35;;
11827;SDS011;5971;49.646;8.568;2024-03-25T12:47:05;4.00;;;2.33;;
11827;SDS011;5971;49.646;8.568;2024-03-25T12:50:06;3.55;;;2.13;;
11827;SDS011;5971;49.646;8.568;2024-03-25T12:53:08;5.22;;;2.95;;
11827;SDS011;5971;49.646;8.568;2024-03-25T12:56:09;3.85;;;2.25;;
11827;SDS011;5971;49.646;8.568;2024-03-25T12:59:12;4.22;;;2.45;;
11827;SDS011;5971;49.646;8.568;2024-03-25T13:02:12;3.28;;;1.67;;
11827;SDS011;5971;49.646;8.568;2024-03-25T13:05:13;3.38;;;2.10;;
11827;SDS011;5971;49.646;8.568;2024-03-25T13:08:13;3.47;;;1.88;;
11827;SDS011;5971;49.646;8.568;2024-03-25T13:11:14;3.35;;;2.08;;
11827;SDS011;5971;49.646;8.568;2024-03-25T13:14:14;4.22;;;2.33;;
11827;SDS011;5971;49.646;8.568;2024-03-25T13:17:16;3.33;;;2.30;;
11827;SDS011;5971;49.646;8.568;2024-03-25T13:20:16;4.03;;;2.60;;
11827;SDS011;5971;49.646;8.568;2024-03-25T13:23:16;4.18;;;2.30;;
11827;SDS011;5971;49.646;8.568;2024-03-25T13:26:17;4.00;;;2.45;;
11827;SDS011;5971;49.646;8.568;2024-03-25T13:29:17;5.18;;;2.85;;
11827;SDS011;5971;49.646;8.568;2024-03-25T13:32:21;3.85;;;2.60;;
11827;SDS011;5971;49.646;8.568;2024-03-25T13:35:21;5.03;;;2.35;;
11827;SDS011;5971;49.646;8.568;2024-03-25T13:38:22;4.57;;;2.42;;
11827;SDS011;5971;49.646;8.568;2024-03-25T13:41:22;3.58;;;2.05;;
11827;SDS011;5971;49.646;8.568;2024-03-25T13:44:24;3.80;;;2.08;;
11827;SDS011;5971;49.646;8.568;2024-03-25T13:47:25;5.00;;;2.28;;
11827;SDS011;5971;49.646;8.568;2024-03-25T13:50:25;4.15;;;2.42;;
11827;SDS011;5971;49.646;8.568;2024-03-25T13:53:25;3.13;;;2.10;;
11827;SDS011;5971;49.646;8.568;2024-03-25T13:56:27;4.50;;;2.58;;
11827;SDS011;5971;49.646;8.568;2024-03-25T13:59:27;3.67;;;2.40;;
11827;SDS011;5971;49.646;8.568;2024-03-25T14:02:27;5.75;;;2.70;;
11827;SDS011;5971;49.646;8.568;2024-03-25T14:05:28;4.47;;;2.40;;
11827;SDS011;5971;49.646;8.568;2024-03-25T14:08:28;4.25;;;2.35;;
11827;SDS011;5971;49.646;8.568;2024-03-25T14:11:29;4.80;;;2.45;;
11827;SDS011;5971;49.646;8.568;2024-03-25T14:14:29;4.18;;;2.40;;
11827;SDS011;5971;49.646;8.568;2024-03-25T14:17:30;3.22;;;2.22;;
11827;SDS011;5971;49.646;8.568;2024-03-25T14:20:30;3.95;;;2.10;;
11827;SDS011;5971;49.646;8.568;2024-03-25T14:23:31;6.28;;;2.20;;
11827;SDS011;5971;49.646;8.568;2024-03-25T14:26:31;5.00;;;2.88;;
11827;SDS011;5971;49.646;8.568;2024-03-25T14:29:32;4.00;;;2.25;;
11827;SDS011;5971;49.646;8.568;2024-03-25T14:32:32;4.25;;;2.55;;
11827;SDS011;5971;49.646;8.568;2024-03-25T14:35:32;5.28;;;2.58;;
11827;SDS011;5971;49.646;8.568;2024-03-25T14:38:33;3.42;;;2.28;;
11827;SDS011;5971;49.646;8.568;2024-03-25T14:41:38;4.07;;;2.28;;
11827;SDS011;5971;49.646;8.568;2024-03-25T14:44:38;4.78;;;2.28;;
11827;SDS011;5971;49.646;8.568;2024-03-25T14:47:39;3.50;;;2.20;;
11827;SDS011;5971;49.646;8.568;2024-03-25T14:50:39;3.30;;;1.98;;
11827;SDS011;5971;49.646;8.568;2024-03-25T14:53:39;4.22;;;2.40;;
11827;SDS011;5971;49.646;8.568;2024-03-25T14:56:40;3.83;;;2.10;;
11827;SDS011;5971;49.646;8.568;2024-03-25T14:59:40;3.03;;;1.92;;
11827;SDS011;5971;49.646;8.568;2024-03-25T15:02:41;4.63;;;2.20;;
11827;SDS011;5971;49.646;8.568;2024-03-25T15:05:41;3.90;;;2.20;;
11827;SDS011;5971;49.646;8.568;2024-03-25T15:08:42;4.10;;;2.13;;
11827;SDS011;5971;49.646;8.568;2024-03-25T15:11:42;4.78;;;2.00;;
11827;SDS011;5971;49.646;8.568;2024-03-25T15:14:42;3.08;;;2.30;;
11827;SDS011;5971;49.646;8.568;2024-03-25T15:17:43;3.53;;;2.10;;
11827;SDS011;5971;49.646;8.568;2024-03-25T15:20:43;4.03;;;1.52;;
11827;SDS011;5971;49.646;8.568;2024-03-25T15:23:43;3.72;;;1.80;;
11827;SDS011;5971;49.646;8.568;2024-03-25T15:26:47;2.92;;;1.85;;
11827;SDS011;5971;49.646;8.568;2024-03-25T15:29:47;3.40;;;2.03;;
11827;SDS011;5971;49.646;8.568;2024-03-25T15:32:48;3.72;;;1.95;;
11827;SDS011;5971;49.646;8.568;2024-03-25T15:35:51;3.35;;;1.38;;
11827;SDS011;5971;49.646;8.568;2024-03-25T15:38:52;5.75;;;2.20;;
11827;SDS011;5971;49.646;8.568;2024-03-25T15:41:52;3.58;;;2.20;;
11827;SDS011;5971;49.646;8.568;2024-03-25T15:44:52;3.28;;;1.83;;
11827;SDS011;5971;49.646;8.568;2024-03-25T15:47:53;3.85;;;2.17;;
11827;SDS011;5971;49.646;8.568;2024-03-25T15:50:53;4.05;;;2.28;;
11827;SDS011;5971;49.646;8.568;2024-03-25T15:53:54;4.93;;;2.22;;
11827;SDS011;5971;49.646;8.568;2024-03-25T15:56:55;3.72;;;1.83;;
11827;SDS011;5971;49.646;8.568;2024-03-25T15:59:55;4.65;;;1.70;;
11827;SDS011;5971;49.646;8.568;2024-03-25T16:02:55;5.85;;;1.95;;
11827;SDS011;5971;49.646;8.568;2024-03-25T16:05:57;2.97;;;1.70;;
11827;SDS011;5971;49.646;8.568;2024-03-25T16:08:57;4.10;;;1.55;;
11827;SDS011;5971;49.646;8.568;2024-03-25T16:11:59;2.55;;;1.38;;
11827;SDS011;5971;49.646;8.568;2024-03-25T16:14:59;2.88;;;1.45;;
11827;SDS011;5971;49.646;8.568;2024-03-25T16:18:00;3.08;;;1.73;;
11827;SDS011;5971;49.646;8.568;2024-03-25T16:21:00;3.13;;;1.52;;
11827;SDS011;5971;49.646;8.568;2024-03-25T16:24:01;2.42;;;1.50;;
11827;SDS011;5971;49.646;8.568;2024-03-25T16:27:05;2.70;;;1.60;;
11827;SDS011;5971;49.646;8.568;2024-03-25T16:30:06;3.42;;;1.83;;
11827;SDS011;5971;49.646;8.568;2024-03-25T16:33:06;4.22;;;2.75;;
11827;SDS011;5971;49.646;8.568;2024-03-25T16:36:07;4.00;;;1.80;;
11827;SDS011;5971;49.646;8.568;2024-03-25T16:39:07;3.42;;;1.90;;
11827;SDS011;5971;49.646;8.568;2024-03-25T16:42:10;3.58;;;1.75;;
11827;SDS011;5971;49.646;8.568;2024-03-25T16:45:10;3.10;;;1.45;;
11827;SDS011;5971;49.646;8.568;2024-03-25T16:48:11;3.33;;;1.70;;
11827;SDS011;5971;49.646;8.568;2024-03-25T16:51:11;4.70;;;2.00;;
11827;SDS011;5971;49.646;8.568;2024-03-25T16:54:12;4.15;;;1.65;;
11827;SDS011;5971;49.646;8.568;2024-03-25T16:57:12;3.30;;;1.92;;
11827;SDS011;5971;49.646;8.568;2024-03-25T17:00:13;3.78;;;2.03;;
11827;SDS011;5971;49.646;8.568;2024-03-25T17:03:13;3.97;;;1.75;;
11827;SDS011;5971;49.646;8.568;2024-03-25T17:06:14;4.15;;;1.83;;
11827;SDS011;5971;49.646;8.568;2024-03-25T17:09:14;2.33;;;1.70;;
11827;SDS011;5971;49.646;8.568;2024-03-25T17:12:14;2.75;;;1.25;;
11827;SDS011;5971;49.646;8.568;2024-03-25T17:15:15;3.15;;;1.63;;
11827;SDS011;5971;49.646;8.568;2024-03-25T17:18:15;3.10;;;1.33;;
11827;SDS011;5971;49.646;8.568;2024-03-25T17:21:16;4.93;;;1.45;;
11827;SDS011;5971;49.646;8.568;2024-03-25T17:24:16;4.72;;;1.85;;
11827;SDS011;5971;49.646;8.568;2024-03-25T17:27:16;3.30;;;1.23;;
11827;SDS011;5971;49.646;8.568;2024-03-25T17:30:17;2.65;;;1.20;;
11827;SDS011;5971;49.646;8.568;2024-03-25T17:33:17;2.08;;;0.98;;
11827;SDS011;5971;49.646;8.568;2024-03-25T17:36:19;3.25;;;1.17;;
11827;SDS011;5971;49.646;8.568;2024-03-25T17:39:20;3.17;;;1.00;;
11827;SDS011;5971;49.646;8.568;2024-03-25T17:42:20;1.90;;;1.02;;
11827;SDS011;5971;49.646;8.568;2024-03-25T17:45:21;3.13;;;1.20;;
11827;SDS011;5971;49.646;8.568;2024-03-25T17:48:22;4.22;;;1.25;;
11827;SDS011;5971;49.646;8.568;2024-03-25T17:51:22;3.75;;;1.10;;
11827;SDS011;5971;49.646;8.568;2024-03-25T17:54:23;2.97;;;1.20;;
11827;SDS011;5971;49.646;8.568;2024-03-25T17:57:23;3.42;;;1.50;;
11827;SDS011;5971;49.646;8.568;2024-03-25T18:00:24;2.75;;;1.17;;
11827;SDS011;5971;49.646;8.568;2024-03-25T18:03:27;2.97;;;1.40;;
11827;SDS011;5971;49.646;8.568;2024-03-25T18:06:28;2.30;;;1.50;;
11827;SDS011;5971;49.646;8.568;2024-03-25T18:09:28;3.58;;;1.80;;
11827;SDS011;5971;49.646;8.568;2024-03-25T18:12:29;3.17;;;1.63;;
11827;SDS011;5971;49.646;8.568;2024-03-25T18:15:29;4.03;;;1.55;;
11827;SDS011;5971;49.646;8.568;2024-03-25T18:18:29;5.95;;;2.05;;
11827;SDS011;5971;49.646;8.568;2024-03-25T18:21:30;3.80;;;1.80;;
11827;SDS011;5971;49.646;8.568;2024-03-25T18:24:31;4.35;;;2.10;;
11827;SDS011;5971;49.646;8.568;2024-03-25T18:27:31;6.18;;;2.22;;
11827;SDS011;5971;49.646;8.568;2024-03-25T18:30:32;4.65;;;2.00;;